createdAt,value
2023-04-02T00:00:18.816Z,8.59
2023-04-02T00:01:19.086Z,8.53
2023-04-02T00:02:20.149Z,8.56
2023-04-02T00:03:20.811Z,8.57
2023-04-02T00:04:20.767Z,8.5
2023-04-02T00:05:21.468Z,8.52
2023-04-02T00:06:22.234Z,8.52
2023-04-02T00:07:22.544Z,8.56
2023-04-02T00:08:23.069Z,8.52
2023-04-02T00:09:24.126Z,8.5
2023-04-02T00:10:25.015Z,8.52
2023-04-02T00:11:25.309Z,8.6
2023-04-02T00:12:26.026Z,8.52
2023-04-02T00:13:26.755Z,8.44
2023-04-02T00:14:27.183Z,8.5
2023-04-02T00:15:27.878Z,8.46
2023-04-02T00:16:28.090Z,8.6
2023-04-02T00:17:28.861Z,8.5
2023-04-02T00:18:30.010Z,8.57
2023-04-02T00:19:30.367Z,8.56
2023-04-02T00:20:31.078Z,8.53
2023-04-02T00:21:31.186Z,8.54
2023-04-02T00:22:31.749Z,8.61
2023-04-02T00:23:32.649Z,8.61
2023-04-02T00:24:33.272Z,8.61
2023-04-02T00:25:34.858Z,8.6
2023-04-02T00:26:34.826Z,8.68
2023-04-02T00:27:35.722Z,8.71
2023-04-02T00:28:35.829Z,8.64
2023-04-02T00:29:36.500Z,8.71
2023-04-02T00:30:37.199Z,8.66
2023-04-02T00:31:38.221Z,8.71
2023-04-02T00:32:38.341Z,8.71
2023-04-02T00:33:39.168Z,8.72
2023-04-02T00:34:40.201Z,8.71
2023-04-02T00:35:40.467Z,8.75
2023-04-02T00:36:41.295Z,8.78
2023-04-02T00:37:42.199Z,8.78
2023-04-02T00:38:42.117Z,8.77
2023-04-02T00:39:42.231Z,8.72
2023-04-02T00:40:42.709Z,8.66
2023-04-02T00:41:43.388Z,8.66
2023-04-02T00:42:43.864Z,8.54
2023-04-02T00:43:44.581Z,8.46
2023-04-02T00:44:45.212Z,8.5
2023-04-02T00:45:46.041Z,8.35
2023-04-02T00:46:46.757Z,8.42
2023-04-02T00:47:47.657Z,8.31
2023-04-02T00:48:48.825Z,8.32
2023-04-02T00:49:49.545Z,8.27
2023-04-02T00:50:50.430Z,8.24
2023-04-02T00:51:50.952Z,8.14
2023-04-02T00:52:51.896Z,8.09
2023-04-02T00:53:52.626Z,8.21
2023-04-02T00:54:53.240Z,8.2
2023-04-02T00:55:54.018Z,8.11
2023-04-02T00:56:54.897Z,8.16
2023-04-02T00:57:55.861Z,8.08
2023-04-02T00:58:56.788Z,8.11
2023-04-02T00:59:57.482Z,8.08
2023-04-02T01:00:58.040Z,8.14
2023-04-02T01:01:58.996Z,8.08
2023-04-02T01:03:00.069Z,8.13
2023-04-02T01:04:00.739Z,8.02
2023-04-02T01:05:01.232Z,8.13
2023-04-02T01:06:01.417Z,8.16
2023-04-02T01:07:01.930Z,8.11
2023-04-02T01:08:02.853Z,8.17
2023-04-02T01:09:03.400Z,8.16
2023-04-02T01:10:03.928Z,8.18
2023-04-02T01:11:05.308Z,8.17
2023-04-02T01:12:06.203Z,8.21
2023-04-02T01:13:07.119Z,8.18
2023-04-02T01:14:07.474Z,8.14
2023-04-02T01:15:07.832Z,8.16
2023-04-02T01:16:08.635Z,8.21
2023-04-02T01:17:09.444Z,8.31
2023-04-02T01:18:10.280Z,8.27
2023-04-02T01:19:11.215Z,8.17
2023-04-02T01:20:11.328Z,8.17
2023-04-02T01:21:12.287Z,8.16
2023-04-02T01:22:12.211Z,8.17
2023-04-02T01:23:13.144Z,8.17
2023-04-02T01:24:13.632Z,8.02
2023-04-02T01:25:14.666Z,8.2
2023-04-02T01:26:15.162Z,8.11
2023-04-02T01:27:16.062Z,8.13
2023-04-02T01:28:16.584Z,8.08
2023-04-02T01:29:17.874Z,8.11
2023-04-02T01:30:18.667Z,8.14
2023-04-02T01:31:19.426Z,8.14
2023-04-02T01:32:20.113Z,8.11
2023-04-02T01:33:20.287Z,8.08
2023-04-02T01:34:21.171Z,8.11
2023-04-02T01:35:21.967Z,8.11
2023-04-02T01:36:22.145Z,8.09
2023-04-02T01:37:22.906Z,8.08
2023-04-02T01:38:23.794Z,8.11
2023-04-02T01:39:23.930Z,8.21
2023-04-02T01:40:23.880Z,8.01
2023-04-02T01:41:24.186Z,8.09
2023-04-02T01:42:24.877Z,8.09
2023-04-02T01:43:25.568Z,8.06
2023-04-02T01:44:25.482Z,8.06
2023-04-02T01:45:26.082Z,8.11
2023-04-02T01:46:27.037Z,8.13
2023-04-02T01:47:28.120Z,8.18
2023-04-02T01:48:28.646Z,8.17
2023-04-02T01:49:29.597Z,8.18
2023-04-02T01:50:30.327Z,8.17
2023-04-02T01:51:30.242Z,8.09
2023-04-02T01:52:31.162Z,8.14
2023-04-02T01:53:31.856Z,8.18
2023-04-02T01:54:32.769Z,8.2
2023-04-02T01:55:34.243Z,8.17
2023-04-02T01:56:34.441Z,8.13
2023-04-02T01:57:35.302Z,8.14
2023-04-02T01:58:36.249Z,8.18
2023-04-02T01:59:36.763Z,8.17
2023-04-02T02:00:37.549Z,8.21
2023-04-02T02:01:38.353Z,8.18
2023-04-02T02:02:39.216Z,8.17
2023-04-02T02:03:39.278Z,8.2
2023-04-02T02:04:39.996Z,8.24
2023-04-02T02:05:40.262Z,8.23
2023-04-02T02:06:40.959Z,8.24
2023-04-02T02:07:41.058Z,8.35
2023-04-02T02:08:41.782Z,8.31
2023-04-02T02:09:42.702Z,8.41
2023-04-02T02:10:43.619Z,8.35
2023-04-02T02:11:44.512Z,8.42
2023-04-02T02:12:45.186Z,8.39
2023-04-02T02:13:47.625Z,8.39
2023-04-02T02:16:48.193Z,8.35
2023-04-02T02:17:48.091Z,8.39
2023-04-02T02:18:48.675Z,8.38
2023-04-02T02:19:49.483Z,8.41
2023-04-02T02:20:49.804Z,8.39
2023-04-02T02:21:50.293Z,8.42
2023-04-02T02:22:50.994Z,8.38
2023-04-02T02:23:51.495Z,8.42
2023-04-02T02:24:52.205Z,8.41
2023-04-02T02:25:52.291Z,8.5
2023-04-02T02:26:52.620Z,8.46
2023-04-02T02:27:53.113Z,8.53
2023-04-02T02:28:53.881Z,8.5
2023-04-02T02:29:54.579Z,8.52
2023-04-02T02:30:55.485Z,8.56
2023-04-02T02:31:56.556Z,8.5
2023-04-02T02:32:56.496Z,8.5
2023-04-02T02:33:57.233Z,8.5
2023-04-02T02:34:57.937Z,8.54
2023-04-02T02:35:58.664Z,8.54
2023-04-02T02:36:58.953Z,8.54
2023-04-02T02:37:59.642Z,8.54
2023-04-02T02:39:00.682Z,8.63
2023-04-02T02:40:01.434Z,8.63
2023-04-02T02:41:02.426Z,8.61
2023-04-02T02:42:02.117Z,8.68
2023-04-02T02:43:02.574Z,8.68
2023-04-02T02:44:03.326Z,8.54
2023-04-02T02:45:04.002Z,8.5
2023-04-02T02:46:04.571Z,8.61
2023-04-02T02:47:05.346Z,8.57
2023-04-02T02:48:05.998Z,8.54
2023-04-02T02:49:06.291Z,8.52
2023-04-02T02:50:07.019Z,8.57
2023-04-02T02:51:07.728Z,8.46
2023-04-02T02:52:08.132Z,8.42
2023-04-02T02:53:09.238Z,8.44
2023-04-02T02:54:10.194Z,8.39
2023-04-02T02:55:10.709Z,8.41
2023-04-02T02:56:11.373Z,8.42
2023-04-02T02:57:12.146Z,8.42
2023-04-02T02:58:12.696Z,8.39
2023-04-02T02:59:13.396Z,8.35
2023-04-02T03:00:14.602Z,8.27
2023-04-02T03:01:15.249Z,8.24
2023-04-02T03:02:16.178Z,8.23
2023-04-02T03:03:17.086Z,8.16
2023-04-02T03:04:17.203Z,8.14
2023-04-02T03:05:17.696Z,8.11
2023-04-02T03:06:18.297Z,8.14
2023-04-02T03:07:18.795Z,8.11
2023-04-02T03:08:19.312Z,8.16
2023-04-02T03:09:20.050Z,8.03
2023-04-02T03:10:20.753Z,8.02
2023-04-02T03:11:21.476Z,8.01
2023-04-02T03:12:21.589Z,7.93
2023-04-02T03:13:22.099Z,7.9
2023-04-02T03:14:22.617Z,7.81
2023-04-02T03:15:23.538Z,7.9
2023-04-02T03:16:24.835Z,7.9
2023-04-02T03:17:24.787Z,7.85
2023-04-02T03:18:25.578Z,7.84
2023-04-02T03:19:26.492Z,7.81
2023-04-02T03:20:27.287Z,7.81
2023-04-02T03:21:27.995Z,7.78
2023-04-02T03:22:28.149Z,7.8
2023-04-02T03:23:29.062Z,7.78
2023-04-02T03:24:29.773Z,7.74
2023-04-02T03:25:30.706Z,7.67
2023-04-02T03:26:30.987Z,7.74
2023-04-02T03:27:31.772Z,7.66
2023-04-02T03:28:32.667Z,7.78
2023-04-02T03:29:33.132Z,7.78
2023-04-02T03:30:33.899Z,7.74
2023-04-02T03:31:34.910Z,7.75
2023-04-02T03:32:34.983Z,7.62
2023-04-02T03:33:35.687Z,7.7
2023-04-02T03:34:36.209Z,7.64
2023-04-02T03:35:37.394Z,7.64
2023-04-02T03:36:37.207Z,7.56
2023-04-02T03:37:38.142Z,7.58
2023-04-02T03:38:38.753Z,7.56
2023-04-02T03:39:39.522Z,7.55
2023-04-02T03:40:40.456Z,7.46
2023-04-02T03:41:40.195Z,7.53
2023-04-02T03:42:40.870Z,7.44
2023-04-02T03:43:41.381Z,7.41
2023-04-02T03:44:41.864Z,7.43
2023-04-02T03:45:43.078Z,7.41
2023-04-02T03:46:43.645Z,7.44
2023-04-02T03:47:44.246Z,7.44
2023-04-02T03:48:44.892Z,7.39
2023-04-02T03:49:45.383Z,7.4
2023-04-02T03:50:45.931Z,7.44
2023-04-02T03:51:46.634Z,7.43
2023-04-02T03:52:47.502Z,7.33
2023-04-02T03:53:47.814Z,7.41
2023-04-02T03:54:59.975Z,7.4
2023-04-02T03:56:49.153Z,7.43
2023-04-02T03:57:49.981Z,7.32
2023-04-02T03:58:50.696Z,7.41
2023-04-02T03:59:53.061Z,7.32
2023-04-02T04:01:52.794Z,7.28
2023-04-02T04:02:53.996Z,7.22
2023-04-02T04:03:54.725Z,7.25
2023-04-02T04:04:55.715Z,7.18
2023-04-02T04:05:56.432Z,7.19
2023-04-02T04:06:56.661Z,7.19
2023-04-02T04:07:57.380Z,7.19
2023-04-02T04:08:57.117Z,7.13
2023-04-02T04:09:57.249Z,7.04
2023-04-02T04:10:58.310Z,7
2023-04-02T04:11:58.214Z,7
2023-04-02T04:12:59.086Z,6.87
2023-04-02T04:13:58.985Z,6.86
2023-04-02T04:14:59.459Z,6.82
2023-04-02T04:15:59.736Z,6.75
2023-04-02T04:17:00.874Z,6.75
2023-04-02T04:18:01.330Z,6.65
2023-04-02T04:19:01.862Z,6.72
2023-04-02T04:20:02.361Z,6.59
2023-04-02T04:21:02.899Z,6.59
2023-04-02T04:23:03.282Z,6.59
2023-04-02T04:24:04.221Z,6.57
2023-04-02T04:25:04.110Z,6.59
2023-04-02T04:26:05.048Z,6.46
2023-04-02T04:27:05.680Z,6.46
2023-04-02T04:28:06.249Z,6.59
2023-04-02T04:29:06.739Z,6.57
2023-04-02T04:30:07.465Z,6.59
2023-04-02T04:31:08.362Z,6.54
2023-04-02T04:32:08.844Z,6.5
2023-04-02T04:33:09.044Z,6.44
2023-04-02T04:34:09.355Z,6.49
2023-04-02T04:35:09.851Z,6.57
2023-04-02T04:36:10.890Z,6.47
2023-04-02T04:37:11.158Z,6.59
2023-04-02T04:38:11.201Z,6.6
2023-04-02T04:39:11.703Z,6.64
2023-04-02T04:40:12.623Z,6.67
2023-04-02T04:41:13.379Z,6.56
2023-04-02T04:42:14.328Z,6.57
2023-04-02T04:43:15.228Z,6.71
2023-04-02T04:44:16.134Z,6.59
2023-04-02T04:45:16.818Z,6.62
2023-04-02T04:46:17.709Z,6.57
2023-04-02T04:47:18.472Z,6.62
2023-04-02T04:48:19.034Z,6.59
2023-04-02T04:49:19.940Z,6.57
2023-04-02T04:50:20.847Z,6.57
2023-04-02T04:51:21.545Z,6.68
2023-04-02T04:52:22.500Z,6.74
2023-04-02T04:53:22.509Z,6.6
2023-04-02T04:54:22.830Z,6.59
2023-04-02T04:55:24.119Z,6.59
2023-04-02T04:56:25.789Z,6.57
2023-04-02T04:58:26.241Z,6.47
2023-04-02T04:59:26.775Z,6.46
2023-04-02T05:00:27.506Z,6.44
2023-04-02T05:01:28.575Z,6.44
2023-04-02T05:02:29.335Z,6.47
2023-04-02T05:03:30.149Z,6.49
2023-04-02T05:04:30.630Z,6.38
2023-04-02T05:05:31.283Z,6.39
2023-04-02T05:06:32.244Z,6.41
2023-04-02T05:07:33.079Z,6.46
2023-04-02T05:08:34.185Z,6.39
2023-04-02T05:09:35.105Z,6.35
2023-04-02T05:10:35.036Z,6.38
2023-04-02T05:11:35.752Z,6.32
2023-04-02T05:12:35.943Z,6.41
2023-04-02T05:13:35.660Z,6.38
2023-04-02T05:14:36.551Z,6.38
2023-04-02T05:15:37.566Z,6.36
2023-04-02T05:16:37.517Z,6.39
2023-04-02T05:17:37.720Z,6.46
2023-04-02T05:18:38.458Z,6.38
2023-04-02T05:19:38.987Z,6.56
2023-04-02T05:20:39.913Z,6.46
2023-04-02T05:21:40.840Z,6.5
2023-04-02T05:22:41.946Z,6.49
2023-04-02T05:23:41.662Z,6.57
2023-04-02T05:24:42.597Z,6.6
2023-04-02T05:25:43.787Z,6.6
2023-04-02T05:26:43.717Z,6.56
2023-04-02T05:27:44.562Z,6.59
2023-04-02T05:28:44.862Z,6.6
2023-04-02T05:29:46.145Z,6.62
2023-04-02T05:30:47.047Z,6.68
2023-04-02T05:31:47.954Z,6.68
2023-04-02T05:32:48.587Z,6.75
2023-04-02T05:33:49.631Z,6.71
2023-04-02T05:34:50.559Z,6.53
2023-04-02T05:35:51.348Z,6.56
2023-04-02T05:36:52.221Z,6.62
2023-04-02T05:37:52.421Z,6.67
2023-04-02T05:38:53.562Z,6.59
2023-04-02T05:39:54.066Z,6.7
2023-04-02T05:40:54.752Z,6.67
2023-04-02T05:41:55.471Z,6.74
2023-04-02T05:42:56.234Z,6.72
2023-04-02T05:43:56.925Z,6.67
2023-04-02T05:44:57.805Z,6.72
2023-04-02T05:45:58.317Z,6.49
2023-04-02T05:46:59.444Z,6.65
2023-04-02T05:47:59.956Z,6.68
2023-04-02T05:49:00.425Z,6.77
2023-04-02T05:50:01.327Z,6.82
2023-04-02T05:51:02.033Z,6.85
2023-04-02T05:52:03.506Z,6.85
2023-04-02T05:53:03.412Z,7
2023-04-02T05:54:04.331Z,7.03
2023-04-02T05:55:05.106Z,7.13
2023-04-02T05:56:05.604Z,7.21
2023-04-02T05:57:06.074Z,7.19
2023-04-02T05:58:45.897Z,7.31
2023-04-02T06:00:36.821Z,7.58
2023-04-02T06:01:36.940Z,7.67
2023-04-02T06:02:38.238Z,7.69
2023-04-02T06:03:38.185Z,7.69
2023-04-02T06:04:38.097Z,7.83
2023-04-02T06:05:38.776Z,7.87
2023-04-02T06:06:39.683Z,7.87
2023-04-02T06:07:40.644Z,7.95
2023-04-02T06:08:41.050Z,8.09
2023-04-02T06:09:41.568Z,8.11
2023-04-02T06:10:42.274Z,8.18
2023-04-02T06:11:43.023Z,8.16
2023-04-02T06:12:43.549Z,8.17
2023-04-02T06:13:44.699Z,8.31
2023-04-02T06:14:44.866Z,8.35
2023-04-02T06:15:48.028Z,8.35
2023-04-02T06:16:46.066Z,8.41
2023-04-02T06:17:46.337Z,8.44
2023-04-02T06:18:46.620Z,8.41
2023-04-02T06:19:47.150Z,8.49
2023-04-02T06:20:46.849Z,8.61
2023-04-02T06:21:47.341Z,8.77
2023-04-02T06:22:47.859Z,9.02
2023-04-02T06:23:48.994Z,9.16
2023-04-02T06:24:49.885Z,9.42
2023-04-02T06:25:50.582Z,9.66
2023-04-02T06:26:51.314Z,10.06
2023-04-02T06:27:52.086Z,10.86
2023-04-02T06:28:52.936Z,11.6
2023-04-02T06:29:53.880Z,12.57
2023-04-02T06:30:54.229Z,13.26
2023-04-02T06:31:55.241Z,14.08
2023-04-02T06:32:55.761Z,14.96
2023-04-02T06:33:55.669Z,15.65
2023-04-02T06:34:56.359Z,16.41
2023-04-02T06:35:57.399Z,16.94
2023-04-02T06:36:58.069Z,17.41
2023-04-02T06:37:59.017Z,17.75
2023-04-02T06:38:59.261Z,17.2
2023-04-02T06:40:00.166Z,16.68
2023-04-02T06:41:04.010Z,16.24
2023-04-02T06:43:02.676Z,15.52
2023-04-02T06:44:03.632Z,15.39
2023-04-02T06:45:04.351Z,15.14
2023-04-02T06:46:04.600Z,15.19
2023-04-02T06:47:04.984Z,15.12
2023-04-02T06:48:05.442Z,15.33
2023-04-02T06:49:06.181Z,15.54
2023-04-02T06:50:06.333Z,15.47
2023-04-02T06:51:07.253Z,15.27
2023-04-02T06:52:07.955Z,15.43
2023-04-02T06:53:08.486Z,15.29
2023-04-02T06:54:08.997Z,15.18
2023-04-02T06:55:10.049Z,15.14
2023-04-02T06:56:09.892Z,15.41
2023-04-02T06:57:10.624Z,15.72
2023-04-02T06:58:11.244Z,15.88
2023-04-02T06:59:11.643Z,15.75
2023-04-02T07:00:12.353Z,16.08
2023-04-02T07:01:13.104Z,16.41
2023-04-02T07:02:13.691Z,16.17
2023-04-02T07:03:14.466Z,16.16
2023-04-02T07:04:15.210Z,16.58
2023-04-02T07:05:16.143Z,16.76
2023-04-02T07:06:17.064Z,16.99
2023-04-02T07:07:17.774Z,16.91
2023-04-02T07:08:18.753Z,16.58
2023-04-02T07:09:19.175Z,16.44
2023-04-02T07:10:20.124Z,16.49
2023-04-02T07:11:21.504Z,16.1
2023-04-02T07:12:21.213Z,15.92
2023-04-02T07:13:22.509Z,15.78
2023-04-02T07:14:22.531Z,15.63
2023-04-02T07:15:23.622Z,15.59
2023-04-02T07:16:24.546Z,15.47
2023-04-02T07:17:24.468Z,15.65
2023-04-02T07:18:25.567Z,15.78
2023-04-02T07:19:26.029Z,15.52
2023-04-02T07:20:26.948Z,15.43
2023-04-02T07:21:26.874Z,15.22
2023-04-02T07:22:27.780Z,15.3
2023-04-02T07:23:28.612Z,15.3
2023-04-02T07:24:29.364Z,15.27
2023-04-02T07:25:30.491Z,15.23
2023-04-02T07:26:30.904Z,15.12
2023-04-02T07:27:31.613Z,15.29
2023-04-02T07:28:32.764Z,15.32
2023-04-02T07:29:32.894Z,15.19
2023-04-02T07:30:33.192Z,15.1
2023-04-02T07:31:34.027Z,15.1
2023-04-02T07:32:34.842Z,15.05
2023-04-02T07:33:35.823Z,15.32
2023-04-02T07:34:36.788Z,15.57
2023-04-02T07:35:38.648Z,15.62
2023-04-02T07:36:38.434Z,15.69
2023-04-02T07:37:38.763Z,16.02
2023-04-02T07:38:39.493Z,16.22
2023-04-02T07:39:42.140Z,15.96
2023-04-02T07:41:41.547Z,16.16
2023-04-02T07:42:41.829Z,16
2023-04-02T07:43:42.575Z,15.78
2023-04-02T07:44:43.164Z,15.37
2023-04-02T07:45:44.042Z,15.17
2023-04-02T07:46:45.281Z,15.02
2023-04-02T07:47:45.516Z,14.56
2023-04-02T07:48:45.719Z,14.28
2023-04-02T07:49:46.341Z,14.13
2023-04-02T07:50:46.104Z,14.05
2023-04-02T07:51:46.854Z,13.83
2023-04-02T07:52:47.801Z,13.85
2023-04-02T07:53:48.831Z,14.34
2023-04-02T07:54:48.961Z,14.63
2023-04-02T07:55:49.066Z,14.66
2023-04-02T07:56:49.693Z,14.67
2023-04-02T07:57:52.234Z,14.62
2023-04-02T08:00:52.365Z,14.36
2023-04-02T08:01:53.533Z,14.34
2023-04-02T08:02:53.377Z,14.2
2023-04-02T08:03:55.061Z,13.95
2023-04-02T08:04:54.493Z,13.87
2023-04-02T08:05:55.408Z,13.91
2023-04-02T08:06:55.937Z,14.05
2023-04-02T08:07:56.757Z,14.18
2023-04-02T08:08:57.490Z,14.36
2023-04-02T08:09:57.906Z,14.43
2023-04-02T08:10:58.640Z,14.4
2023-04-02T08:11:59.333Z,14.62
2023-04-02T08:13:00.029Z,14.77
2023-04-02T08:14:00.771Z,15
2023-04-02T08:15:01.970Z,15.07
2023-04-02T08:16:02.886Z,15.07
2023-04-02T08:17:04.016Z,15.22
2023-04-02T08:18:03.858Z,15.23
2023-04-02T08:19:04.744Z,15.52
2023-04-02T08:20:04.907Z,15.72
2023-04-02T08:21:05.372Z,15.67
2023-04-02T08:22:05.707Z,15.84
2023-04-02T08:23:06.304Z,15.85
2023-04-02T08:24:07.021Z,15.75
2023-04-02T08:25:07.756Z,15.54
2023-04-02T08:26:08.680Z,15.41
2023-04-02T08:27:08.962Z,15.17
2023-04-02T08:28:09.695Z,15.05
2023-04-02T08:29:11.017Z,14.92
2023-04-02T08:30:11.950Z,14.7
2023-04-02T08:31:12.734Z,14.59
2023-04-02T08:32:13.590Z,14.56
2023-04-02T08:33:14.374Z,14.71
2023-04-02T08:34:15.083Z,14.92
2023-04-02T08:35:15.513Z,14.92
2023-04-02T08:36:15.896Z,14.96
2023-04-02T08:37:16.713Z,15.08
2023-04-02T08:38:17.667Z,15.02
2023-04-02T08:39:17.902Z,15.12
2023-04-02T08:40:18.183Z,15.17
2023-04-02T08:41:19.128Z,15.05
2023-04-02T08:42:20.017Z,15.07
2023-04-02T08:43:23.648Z,15.17
2023-04-02T08:44:21.597Z,15.22
2023-04-02T08:45:31.101Z,15.17
2023-04-02T08:47:22.495Z,15.11
2023-04-02T08:48:23.262Z,14.9
2023-04-02T08:49:23.956Z,14.55
2023-04-02T08:50:24.567Z,14.48
2023-04-02T08:51:25.293Z,14.26
2023-04-02T08:52:25.797Z,13.93
2023-04-02T08:53:26.685Z,13.78
2023-04-02T08:54:27.788Z,13.57
2023-04-02T08:55:27.060Z,13.39
2023-04-02T08:56:27.955Z,13.3
2023-04-02T08:57:28.797Z,13.26
2023-04-02T08:58:29.565Z,13.17
2023-04-02T08:59:30.341Z,13.08
2023-04-02T09:00:30.991Z,13.11
2023-04-02T09:01:31.417Z,13.09
2023-04-02T09:02:31.709Z,13.17
2023-04-02T09:03:32.776Z,13.24
2023-04-02T09:04:33.523Z,13.58
2023-04-02T09:05:33.889Z,13.79
2023-04-02T09:06:33.748Z,13.97
2023-04-02T09:07:33.688Z,14.03
2023-04-02T09:08:34.606Z,14.04
2023-04-02T09:09:35.336Z,13.97
2023-04-02T09:10:35.954Z,13.86
2023-04-02T09:11:36.487Z,13.86
2023-04-02T09:12:37.216Z,14.01
2023-04-02T09:13:37.580Z,14.41
2023-04-02T09:14:38.512Z,14.9
2023-04-02T09:15:39.883Z,15.14
2023-04-02T09:16:40.093Z,15.07
2023-04-02T09:17:59.510Z,14.94
2023-04-02T09:19:42.018Z,14.68
2023-04-02T09:20:42.437Z,14.44
2023-04-02T09:21:43.133Z,14.3
2023-04-02T09:22:43.664Z,14.28
2023-04-02T09:23:44.021Z,14.01
2023-04-02T09:24:44.748Z,13.83
2023-04-02T09:26:03.319Z,13.55
2023-04-02T09:26:45.589Z,13.37
2023-04-02T09:27:45.862Z,13.2
2023-04-02T09:28:47.173Z,13.3
2023-04-02T09:29:48.332Z,13.31
2023-04-02T09:30:49.309Z,13.31
2023-04-02T09:31:50.049Z,13.76
2023-04-02T09:32:51.203Z,13.79
2023-04-02T09:33:51.151Z,13.71
2023-04-02T09:34:51.672Z,13.75
2023-04-02T09:35:52.910Z,13.64
2023-04-02T09:36:53.533Z,13.5
2023-04-02T09:37:54.242Z,13.37
2023-04-02T09:38:54.748Z,13.36
2023-04-02T09:39:55.690Z,13.24
2023-04-02T09:40:55.993Z,13.36
2023-04-02T09:42:10.500Z,13.3
2023-04-02T09:43:57.634Z,13.17
2023-04-02T09:44:58.256Z,13.09
2023-04-02T09:45:59.212Z,12.99
2023-04-02T09:47:00.350Z,13.01
2023-04-02T09:48:00.498Z,13.01
2023-04-02T09:49:01.453Z,13.06
2023-04-02T09:50:02.239Z,13.16
2023-04-02T09:51:02.736Z,13.31
2023-04-02T09:52:03.232Z,13.49
2023-04-02T09:53:03.980Z,13.79
2023-04-02T09:54:04.973Z,14.04
2023-04-02T09:55:05.882Z,14.4
2023-04-02T09:56:06.382Z,14.53
2023-04-02T09:57:07.403Z,14.51
2023-04-02T09:58:08.055Z,14.37
2023-04-02T09:59:07.957Z,14.41
2023-04-02T10:00:31.172Z,14.16
2023-04-02T10:02:20.332Z,14.13
2023-04-02T10:03:21.136Z,14.12
2023-04-02T10:04:25.856Z,14.03
2023-04-02T10:05:41.309Z,14.05
2023-04-02T10:07:23.102Z,13.97
2023-04-02T10:08:23.806Z,13.79
2023-04-02T10:09:24.513Z,13.8
2023-04-02T10:10:26.754Z,13.68
2023-04-02T10:11:36.877Z,13.64
2023-04-02T10:12:26.375Z,13.52
2023-04-02T10:13:27.113Z,13.62
2023-04-02T10:14:27.865Z,14.08
2023-04-02T10:15:28.433Z,14.01
2023-04-02T10:16:31.124Z,13.87
2023-04-02T10:18:30.292Z,13.7
2023-04-02T10:19:31.435Z,13.54
2023-04-02T10:20:48.824Z,13.27
2023-04-02T10:22:39.196Z,13.01
2023-04-02T10:23:39.492Z,12.91
2023-04-02T10:24:40.581Z,12.8
2023-04-02T10:25:41.839Z,12.65
2023-04-02T10:26:41.757Z,12.61
2023-04-02T10:27:42.258Z,12.5
2023-04-02T10:28:43.199Z,12.47
2023-04-02T10:29:43.894Z,12.43
2023-04-02T10:30:45.096Z,12.4
2023-04-02T10:32:45.729Z,12.3
2023-04-02T10:33:46.806Z,12.4
2023-04-02T10:34:48.536Z,12.29
2023-04-02T10:36:47.578Z,12.25
2023-04-02T10:37:48.122Z,12.2
2023-04-02T10:38:48.817Z,12.18
2023-04-02T10:39:49.150Z,12.26
2023-04-02T10:40:50.283Z,12.15
2023-04-02T10:41:50.401Z,12.12
2023-04-02T10:42:51.171Z,12.2
2023-04-02T10:43:52.097Z,12.12
2023-04-02T10:44:52.985Z,12.28
2023-04-02T10:45:53.868Z,12.35
2023-04-02T10:46:54.463Z,12.37
2023-04-02T10:47:55.113Z,12.36
2023-04-02T10:48:55.990Z,12.37
2023-04-02T10:49:56.640Z,12.37
2023-04-02T10:50:57.415Z,12.39
2023-04-02T10:51:58.060Z,12.37
2023-04-02T10:53:00.620Z,12.36
2023-04-02T10:55:00.215Z,12.54
2023-04-02T10:56:00.934Z,12.57
2023-04-02T10:57:01.453Z,12.58
2023-04-02T10:58:02.303Z,12.65
2023-04-02T10:59:03.125Z,12.73
2023-04-02T11:00:03.821Z,12.76
2023-04-02T11:01:04.831Z,12.83
2023-04-02T11:02:04.989Z,12.86
2023-04-02T11:03:06.058Z,12.93
2023-04-02T11:04:06.281Z,13.01
2023-04-02T11:05:07.968Z,13.19
2023-04-02T11:07:19.472Z,13.68
2023-04-02T11:09:08.680Z,13.86
2023-04-02T11:10:09.412Z,14.18
2023-04-02T11:11:10.690Z,14.36
2023-04-02T11:12:11.098Z,14.55
2023-04-02T11:13:11.584Z,15.08
2023-04-02T11:14:12.209Z,15.47
2023-04-02T11:15:13.159Z,15.84
2023-04-02T11:16:14.094Z,16.22
2023-04-02T11:17:14.196Z,16.61
2023-04-02T11:18:15.248Z,16.94
2023-04-02T11:19:15.663Z,17.32
2023-04-02T11:20:16.428Z,17.59
2023-04-02T11:21:16.924Z,17.49
2023-04-02T11:22:17.107Z,17.22
2023-04-02T11:23:18.032Z,16.99
2023-04-02T11:24:18.326Z,16.73
2023-04-02T11:25:19.695Z,16.5
2023-04-02T11:26:20.624Z,16.44
2023-04-02T11:27:21.144Z,16.31
2023-04-02T11:28:24.643Z,16.18
2023-04-02T11:29:22.417Z,16.17
2023-04-02T11:30:22.559Z,16.17
2023-04-02T11:31:23.408Z,16.06
2023-04-02T11:32:24.217Z,16.08
2023-04-02T11:33:38.520Z,15.94
2023-04-02T11:35:25.837Z,15.8
2023-04-02T11:36:26.275Z,15.84
2023-04-02T11:37:27.400Z,15.81
2023-04-02T11:38:27.898Z,15.62
2023-04-02T11:39:28.399Z,15.52
2023-04-02T11:40:29.313Z,15.27
2023-04-02T11:41:29.621Z,15.11
2023-04-02T11:42:30.320Z,15.07
2023-04-02T11:43:31.213Z,15.08
2023-04-02T11:44:31.655Z,14.96
2023-04-02T11:45:46.692Z,15
2023-04-02T11:46:33.140Z,14.89
2023-04-02T11:47:34.412Z,14.82
2023-04-02T11:48:35.175Z,14.61
2023-04-02T11:49:35.538Z,14.53
2023-04-02T11:50:36.221Z,14.48
2023-04-02T11:51:36.426Z,14.3
2023-04-02T11:52:36.828Z,14.31
2023-04-02T11:53:37.532Z,14.19
2023-04-02T11:54:38.053Z,14.08
2023-04-02T11:55:39.982Z,14.07
2023-04-02T11:56:39.781Z,13.95
2023-04-02T11:57:40.723Z,13.86
2023-04-02T11:58:41.515Z,13.79
2023-04-02T11:59:42.264Z,13.65
2023-04-02T12:00:43.269Z,13.58
2023-04-02T12:01:44.242Z,13.43
2023-04-02T12:02:45.146Z,13.46
2023-04-02T12:03:44.783Z,13.47
2023-04-02T12:04:45.570Z,13.39
2023-04-02T12:05:46.341Z,13.3
2023-04-02T12:06:47.340Z,13.26
2023-04-02T12:07:48.116Z,13.28
2023-04-02T12:09:02.439Z,13.27
2023-04-02T12:10:48.852Z,13.11
2023-04-02T12:11:52.479Z,13.03
2023-04-02T12:13:50.901Z,12.84
2023-04-02T12:14:51.735Z,12.83
2023-04-02T12:15:51.697Z,12.8
2023-04-02T12:16:52.682Z,12.78
2023-04-02T12:17:53.129Z,12.62
2023-04-02T12:19:55.476Z,12.57
2023-04-02T12:21:55.037Z,12.48
2023-04-02T12:22:55.873Z,12.54
2023-04-02T12:23:56.558Z,12.5
2023-04-02T12:24:57.270Z,12.48
2023-04-02T12:25:57.743Z,12.44
2023-04-02T12:26:58.502Z,12.48
2023-04-02T12:27:58.785Z,12.47
2023-04-02T12:28:59.985Z,12.47
2023-04-02T12:30:00.723Z,12.54
2023-04-02T12:31:02.003Z,12.57
2023-04-02T12:32:02.908Z,12.57
2023-04-02T12:33:03.549Z,12.61
2023-04-02T12:34:04.705Z,12.65
2023-04-02T12:35:05.184Z,12.61
2023-04-02T12:36:05.635Z,12.65
2023-04-02T12:37:06.213Z,12.63
2023-04-02T12:38:07.353Z,12.62
2023-04-02T12:39:08.075Z,12.63
2023-04-02T12:40:08.726Z,12.68
2023-04-02T12:41:08.674Z,12.73
2023-04-02T12:42:09.432Z,12.8
2023-04-02T12:43:09.876Z,12.83
2023-04-02T12:44:10.606Z,12.8
2023-04-02T12:45:11.563Z,12.88
2023-04-02T12:46:12.328Z,12.83
2023-04-02T12:47:12.542Z,12.91
2023-04-02T12:48:12.635Z,12.78
2023-04-02T12:49:12.847Z,12.88
2023-04-02T12:50:13.147Z,12.91
2023-04-02T12:51:13.941Z,12.78
2023-04-02T12:52:13.851Z,12.93
2023-04-02T12:53:14.623Z,12.9
2023-04-02T12:54:15.538Z,13.01
2023-04-02T12:55:16.472Z,13.16
2023-04-02T12:56:16.973Z,13.21
2023-04-02T12:57:17.566Z,13.21
2023-04-02T12:58:17.801Z,13.3
2023-04-02T12:59:18.310Z,13.31
2023-04-02T13:00:19.033Z,13.24
2023-04-02T13:01:19.189Z,13.39
2023-04-02T13:02:19.321Z,13.21
2023-04-02T13:03:20.238Z,13.36
2023-04-02T13:04:20.479Z,13.4
2023-04-02T13:05:21.186Z,13.58
2023-04-02T13:06:21.932Z,13.64
2023-04-02T13:07:22.744Z,13.73
2023-04-02T13:08:23.687Z,13.8
2023-04-02T13:09:25.132Z,13.86
2023-04-02T13:10:24.812Z,13.95
2023-04-02T13:11:25.893Z,14.01
2023-04-02T13:12:26.436Z,14.13
2023-04-02T13:13:27.391Z,14.19
2023-04-02T13:14:28.294Z,14.34
2023-04-02T13:15:29.240Z,14.4
2023-04-02T13:16:30.404Z,14.45
2023-04-02T13:17:30.724Z,14.56
2023-04-02T13:18:30.793Z,14.66
2023-04-02T13:19:31.455Z,14.78
2023-04-02T13:20:32.216Z,15.02
2023-04-02T13:21:34.346Z,15.18
2023-04-02T13:24:34.782Z,15.41
2023-04-02T13:25:35.281Z,15.45
2023-04-02T13:26:36.207Z,15.37
2023-04-02T13:27:36.326Z,15.45
2023-04-02T13:28:37.031Z,15.51
2023-04-02T13:29:37.730Z,15.5
2023-04-02T13:30:39.015Z,15.43
2023-04-02T13:31:39.859Z,15.44
2023-04-02T13:32:41.093Z,15.35
2023-04-02T13:33:42.038Z,15.39
2023-04-02T13:34:41.810Z,15.35
2023-04-02T13:35:42.931Z,15.27
2023-04-02T13:36:43.317Z,15.55
2023-04-02T13:37:44.576Z,15.81
2023-04-02T13:38:44.670Z,15.96
2023-04-02T13:39:44.963Z,16.24
2023-04-02T13:40:45.651Z,16.34
2023-04-02T13:41:46.382Z,16.55
2023-04-02T13:42:47.183Z,16.62
2023-04-02T13:43:47.273Z,16.39
2023-04-02T13:44:47.997Z,16.18
2023-04-02T13:45:49.117Z,16.08
2023-04-02T13:46:48.912Z,15.88